sensor_id;sensor_type;location;lat;lon;timestamp;pressure;altitude;pressure_sealevel;temperature;humidity
71948;BME280;63257;55.082;38.772;2023-08-21T00:01:10;99829.94;;;15.91;100.00
71948;BME280;63257;55.082;38.772;2023-08-21T00:03:36;99843.25;;;15.91;100.00
71948;BME280;63257;55.082;38.772;2023-08-21T00:06:02;99847.00;;;15.89;100.00
71948;BME280;63257;55.082;38.772;2023-08-21T00:08:27;99840.97;;;15.87;100.00
71948;BME280;63257;55.082;38.772;2023-08-21T00:10:53;99838.84;;;15.79;100.00
71948;BME280;63257;55.082;38.772;2023-08-21T00:13:19;99839.50;;;15.83;100.00
71948;BME280;63257;55.082;38.772;2023-08-21T00:15:45;99832.78;;;15.77;100.00
71948;BME280;63257;55.082;38.772;2023-08-21T00:18:10;99843.34;;;15.78;100.00
71948;BME280;63257;55.082;38.772;2023-08-21T00:20:36;99839.94;;;15.76;100.00
71948;BME280;63257;55.082;38.772;2023-08-21T00:23:02;99841.91;;;15.86;100.00
71948;BME280;63257;55.082;38.772;2023-08-21T00:25:28;99842.88;;;15.85;100.00
71948;BME280;63257;55.082;38.772;2023-08-21T00:27:53;99848.19;;;15.85;100.00
71948;BME280;63257;55.082;38.772;2023-08-21T00:30:19;99842.88;;;15.85;100.00
71948;BME280;63257;55.082;38.772;2023-08-21T00:32:45;99833.03;;;15.74;100.00
71948;BME280;63257;55.082;38.772;2023-08-21T00:35:11;99830.13;;;15.77;100.00
71948;BME280;63257;55.082;38.772;2023-08-21T00:37:37;99844.59;;;15.86;100.00
71948;BME280;63257;55.082;38.772;2023-08-21T00:40:03;99846.03;;;15.90;100.00
71948;BME280;63257;55.082;38.772;2023-08-21T00:42:29;99830.78;;;15.81;100.00
71948;BME280;63257;55.082;38.772;2023-08-21T00:44:55;99845.78;;;15.93;100.00
71948;BME280;63257;55.082;38.772;2023-08-21T00:47:22;99830.31;;;15.87;100.00
71948;BME280;63257;55.082;38.772;2023-08-21T00:49:48;99837.56;;;15.96;100.00
71948;BME280;63257;55.082;38.772;2023-08-21T00:52:14;99829.44;;;15.86;100.00
71948;BME280;63257;55.082;38.772;2023-08-21T00:54:41;99832.47;;;15.82;100.00
71948;BME280;63257;55.082;38.772;2023-08-21T00:57:07;99836.84;;;15.94;100.00
71948;BME280;63257;55.082;38.772;2023-08-21T00:59:34;99831.16;;;15.87;100.00
71948;BME280;63257;55.082;38.772;2023-08-21T01:01:59;99830.78;;;15.81;100.00
71948;BME280;63257;55.082;38.772;2023-08-21T01:04:25;99828.31;;;15.77;100.00
71948;BME280;63257;55.082;38.772;2023-08-21T01:06:51;99835.13;;;15.82;100.00
71948;BME280;63257;55.082;38.772;2023-08-21T01:09:36;99823.84;;;15.78;100.00
71948;BME280;63257;55.082;38.772;2023-08-21T01:12:31;99836.22;;;15.90;100.00
71948;BME280;63257;55.082;38.772;2023-08-21T01:15:05;99840.75;;;15.77;100.00
71948;BME280;63257;55.082;38.772;2023-08-21T01:17:34;99849.09;;;15.72;100.00
71948;BME280;63257;55.082;38.772;2023-08-21T01:20:02;99834.34;;;15.68;100.00
71948;BME280;63257;55.082;38.772;2023-08-21T01:22:39;99837.50;;;15.62;100.00
71948;BME280;63257;55.082;38.772;2023-08-21T01:25:07;99840.75;;;15.66;100.00
71948;BME280;63257;55.082;38.772;2023-08-21T01:27:35;99840.16;;;15.62;100.00
71948;BME280;63257;55.082;38.772;2023-08-21T01:30:02;99828.75;;;15.60;100.00
71948;BME280;63257;55.082;38.772;2023-08-21T01:35:06;99822.75;;;15.69;100.00
71948;BME280;63257;55.082;38.772;2023-08-21T01:37:33;99838.47;;;15.72;100.00
71948;BME280;63257;55.082;38.772;2023-08-21T01:39:59;99827.19;;;15.69;100.00
71948;BME280;63257;55.082;38.772;2023-08-21T01:42:25;99841.88;;;15.74;100.00
71948;BME280;63257;55.082;38.772;2023-08-21T01:44:51;99843.53;;;15.64;100.00
71948;BME280;63257;55.082;38.772;2023-08-21T01:47:17;99850.28;;;15.57;100.00
71948;BME280;63257;55.082;38.772;2023-08-21T01:49:43;99831.41;;;15.49;100.00
71948;BME280;63257;55.082;38.772;2023-08-21T01:52:09;99843.00;;;15.48;100.00
71948;BME280;63257;55.082;38.772;2023-08-21T01:54:35;99828.91;;;15.34;100.00
71948;BME280;63257;55.082;38.772;2023-08-21T01:57:01;99841.88;;;15.39;100.00
71948;BME280;63257;55.082;38.772;2023-08-21T01:59:27;99840.56;;;15.44;100.00
71948;BME280;63257;55.082;38.772;2023-08-21T02:01:53;99848.44;;;15.46;100.00
71948;BME280;63257;55.082;38.772;2023-08-21T02:04:19;99840.03;;;15.28;100.00
71948;BME280;63257;55.082;38.772;2023-08-21T02:06:45;99848.13;;;15.26;100.00
71948;BME280;63257;55.082;38.772;2023-08-21T02:09:11;99840.25;;;15.25;100.00
71948;BME280;63257;55.082;38.772;2023-08-21T02:11:36;99855.63;;;15.33;100.00
71948;BME280;63257;55.082;38.772;2023-08-21T02:14:02;99843.00;;;15.23;100.00
71948;BME280;63257;55.082;38.772;2023-08-21T02:16:29;99846.41;;;15.25;100.00
71948;BME280;63257;55.082;38.772;2023-08-21T02:18:55;99857.06;;;15.25;100.00
71948;BME280;63257;55.082;38.772;2023-08-21T02:21:21;99851.84;;;15.24;100.00
71948;BME280;63257;55.082;38.772;2023-08-21T02:23:47;99843.88;;;15.24;100.00
71948;BME280;63257;55.082;38.772;2023-08-21T02:26:13;99858.91;;;15.36;100.00
71948;BME280;63257;55.082;38.772;2023-08-21T02:28:39;99839.50;;;15.23;100.00
71948;BME280;63257;55.082;38.772;2023-08-21T02:31:09;99844.84;;;15.23;100.00
71948;BME280;63257;55.082;38.772;2023-08-21T02:33:37;99855.59;;;15.21;100.00
71948;BME280;63257;55.082;38.772;2023-08-21T02:36:03;99858.47;;;15.18;100.00
71948;BME280;63257;55.082;38.772;2023-08-21T02:38:30;99865.81;;;15.15;100.00
71948;BME280;63257;55.082;38.772;2023-08-21T02:40:57;99862.44;;;15.13;100.00
71948;BME280;63257;55.082;38.772;2023-08-21T02:43:22;99860.06;;;15.21;100.00
71948;BME280;63257;55.082;38.772;2023-08-21T02:45:48;99860.78;;;15.23;100.00
71948;BME280;63257;55.082;38.772;2023-08-21T02:48:14;99864.63;;;15.19;100.00
71948;BME280;63257;55.082;38.772;2023-08-21T02:50:40;99867.28;;;15.19;100.00
71948;BME280;63257;55.082;38.772;2023-08-21T02:53:07;99860.91;;;15.21;100.00
71948;BME280;63257;55.082;38.772;2023-08-21T02:55:33;99874.06;;;15.23;100.00
71948;BME280;63257;55.082;38.772;2023-08-21T02:57:59;99845.97;;;15.07;100.00
71948;BME280;63257;55.082;38.772;2023-08-21T03:00:25;99875.78;;;15.24;100.00
71948;BME280;63257;55.082;38.772;2023-08-21T03:02:51;99864.97;;;15.14;100.00
71948;BME280;63257;55.082;38.772;2023-08-21T03:05:17;99865.81;;;15.15;100.00
71948;BME280;63257;55.082;38.772;2023-08-21T03:07:43;99869.31;;;15.15;100.00
71948;BME280;63257;55.082;38.772;2023-08-21T03:10:09;99873.50;;;15.06;100.00
71948;BME280;63257;55.082;38.772;2023-08-21T03:12:35;99871.75;;;14.94;100.00
71948;BME280;63257;55.082;38.772;2023-08-21T03:15:01;99874.22;;;14.84;100.00
71948;BME280;63257;55.082;38.772;2023-08-21T03:17:30;99877.22;;;14.80;100.00
71948;BME280;63257;55.082;38.772;2023-08-21T03:19:56;99878.91;;;14.81;100.00
71948;BME280;63257;55.082;38.772;2023-08-21T03:22:23;99883.03;;;14.85;100.00
71948;BME280;63257;55.082;38.772;2023-08-21T03:24:49;99873.81;;;14.78;100.00
71948;BME280;63257;55.082;38.772;2023-08-21T03:27:15;99876.19;;;14.69;100.00
71948;BME280;63257;55.082;38.772;2023-08-21T03:29:43;99881.38;;;14.71;100.00
71948;BME280;63257;55.082;38.772;2023-08-21T03:32:18;99881.16;;;14.74;100.00
71948;BME280;63257;55.082;38.772;2023-08-21T03:34:44;99876.34;;;14.79;100.00
71948;BME280;63257;55.082;38.772;2023-08-21T03:37:11;99855.56;;;14.73;100.00
71948;BME280;63257;55.082;38.772;2023-08-21T03:39:37;99869.03;;;14.83;100.00
71948;BME280;63257;55.082;38.772;2023-08-21T03:42:03;99866.69;;;14.78;100.00
71948;BME280;63257;55.082;38.772;2023-08-21T03:44:29;99868.72;;;14.74;100.00
71948;BME280;63257;55.082;38.772;2023-08-21T03:46:54;99851.84;;;14.63;100.00
71948;BME280;63257;55.082;38.772;2023-08-21T03:49:20;99851.28;;;14.57;100.00
71948;BME280;63257;55.082;38.772;2023-08-21T03:51:47;99855.53;;;14.60;100.00
71948;BME280;63257;55.082;38.772;2023-08-21T03:54:13;99866.16;;;14.60;100.00
71948;BME280;63257;55.082;38.772;2023-08-21T03:56:39;99864.47;;;14.72;100.00
71948;BME280;63257;55.082;38.772;2023-08-21T03:59:05;99862.47;;;14.75;100.00
71948;BME280;63257;55.082;38.772;2023-08-21T04:01:30;99843.88;;;14.75;100.00
71948;BME280;63257;55.082;38.772;2023-08-21T04:03:56;99852.97;;;14.84;100.00
71948;BME280;63257;55.082;38.772;2023-08-21T04:06:22;99848.59;;;14.83;100.00
71948;BME280;63257;55.082;38.772;2023-08-21T04:08:48;99860.59;;;14.89;100.00
71948;BME280;63257;55.082;38.772;2023-08-21T04:11:13;99834.31;;;14.73;100.00
71948;BME280;63257;55.082;38.772;2023-08-21T04:13:39;99853.97;;;14.95;100.00
71948;BME280;63257;55.082;38.772;2023-08-21T04:16:05;99856.34;;;14.86;99.28
71948;BME280;63257;55.082;38.772;2023-08-21T04:18:31;99855.50;;;14.86;99.47
71948;BME280;63257;55.082;38.772;2023-08-21T04:20:57;99862.75;;;14.84;99.53
71948;BME280;63257;55.082;38.772;2023-08-21T04:23:22;99861.28;;;14.80;99.42
71948;BME280;63257;55.082;38.772;2023-08-21T04:25:48;99852.88;;;14.60;99.17
71948;BME280;63257;55.082;38.772;2023-08-21T04:28:14;99868.00;;;14.59;99.60
71948;BME280;63257;55.082;38.772;2023-08-21T04:30:41;99865.88;;;14.52;99.86
71948;BME280;63257;55.082;38.772;2023-08-21T04:33:08;99866.44;;;14.44;100.00
71948;BME280;63257;55.082;38.772;2023-08-21T04:35:38;99867.78;;;14.37;100.00
71948;BME280;63257;55.082;38.772;2023-08-21T04:38:04;99869.16;;;14.55;100.00
71948;BME280;63257;55.082;38.772;2023-08-21T04:40:30;99862.16;;;14.67;98.19
71948;BME280;63257;55.082;38.772;2023-08-21T04:42:56;99874.41;;;14.94;96.03
71948;BME280;63257;55.082;38.772;2023-08-21T04:45:23;99870.31;;;15.14;93.41
71948;BME280;63257;55.082;38.772;2023-08-21T04:47:48;99860.91;;;15.21;90.73
71948;BME280;63257;55.082;38.772;2023-08-21T04:50:14;99873.84;;;15.26;90.72
71948;BME280;63257;55.082;38.772;2023-08-21T04:52:41;99876.81;;;15.10;89.87
71948;BME280;63257;55.082;38.772;2023-08-21T04:55:08;99888.28;;;15.10;90.38
71948;BME280;63257;55.082;38.772;2023-08-21T04:57:36;99888.91;;;15.14;89.99
71948;BME280;63257;55.082;38.772;2023-08-21T05:00:06;99893.31;;;15.02;89.19
71948;BME280;63257;55.082;38.772;2023-08-21T05:02:36;99883.00;;;14.98;90.11
71948;BME280;63257;55.082;38.772;2023-08-21T05:05:02;99899.25;;;15.06;89.07
71948;BME280;63257;55.082;38.772;2023-08-21T05:07:31;99895.56;;;14.96;90.69
71948;BME280;63257;55.082;38.772;2023-08-21T05:10:00;99881.38;;;14.84;90.93
71948;BME280;63257;55.082;38.772;2023-08-21T05:12:31;99888.75;;;14.91;91.65
71948;BME280;63257;55.082;38.772;2023-08-21T05:14:59;99896.41;;;14.96;91.08
71948;BME280;63257;55.082;38.772;2023-08-21T05:17:25;99889.16;;;14.98;91.33
71948;BME280;63257;55.082;38.772;2023-08-21T05:19:52;99886.91;;;15.05;90.15
71948;BME280;63257;55.082;38.772;2023-08-21T05:22:19;99883.31;;;15.06;90.20
71948;BME280;63257;55.082;38.772;2023-08-21T05:24:46;99909.41;;;15.12;89.29
71948;BME280;63257;55.082;38.772;2023-08-21T05:27:12;99902.88;;;15.05;89.57
71948;BME280;63257;55.082;38.772;2023-08-21T05:29:38;99903.69;;;15.05;90.20
71948;BME280;63257;55.082;38.772;2023-08-21T05:32:05;99905.16;;;15.09;89.36
71948;BME280;63257;55.082;38.772;2023-08-21T05:34:31;99917.41;;;15.12;88.64
71948;BME280;63257;55.082;38.772;2023-08-21T05:36:57;99906.22;;;15.20;87.92
71948;BME280;63257;55.082;38.772;2023-08-21T05:39:23;99919.78;;;15.28;87.57
71948;BME280;63257;55.082;38.772;2023-08-21T05:41:49;99916.63;;;15.23;86.42
71948;BME280;63257;55.082;38.772;2023-08-21T05:44:16;99903.81;;;15.04;85.48
71948;BME280;63257;55.082;38.772;2023-08-21T05:46:42;99911.31;;;15.23;85.52
71948;BME280;63257;55.082;38.772;2023-08-21T05:49:08;99904.25;;;15.35;85.35
71948;BME280;63257;55.082;38.772;2023-08-21T05:51:34;99896.25;;;15.35;85.12
71948;BME280;63257;55.082;38.772;2023-08-21T05:54:00;99905.03;;;15.24;83.96
71948;BME280;63257;55.082;38.772;2023-08-21T05:56:27;99911.34;;;15.10;84.80
71948;BME280;63257;55.082;38.772;2023-08-21T05:58:53;99913.72;;;15.26;85.04
71948;BME280;63257;55.082;38.772;2023-08-21T06:01:19;99913.81;;;15.37;84.34
71948;BME280;63257;55.082;38.772;2023-08-21T06:03:44;99907.22;;;15.54;83.54
71948;BME280;63257;55.082;38.772;2023-08-21T06:06:29;99902.09;;;15.75;82.90
71948;BME280;63257;55.082;38.772;2023-08-21T06:08:55;99900.97;;;15.91;82.78
71948;BME280;63257;55.082;38.772;2023-08-21T06:11:21;99891.66;;;15.97;82.72
71948;BME280;63257;55.082;38.772;2023-08-21T06:13:47;99904.03;;;16.09;81.69
71948;BME280;63257;55.082;38.772;2023-08-21T06:16:13;99894.91;;;15.89;81.80
71948;BME280;63257;55.082;38.772;2023-08-21T06:18:40;99907.13;;;15.91;81.69
71948;BME280;63257;55.082;38.772;2023-08-21T06:21:06;99909.56;;;15.94;82.30
71948;BME280;63257;55.082;38.772;2023-08-21T06:23:32;99908.75;;;16.17;80.98
71948;BME280;63257;55.082;38.772;2023-08-21T06:25:58;99918.81;;;16.13;80.75
71948;BME280;63257;55.082;38.772;2023-08-21T06:28:24;99891.53;;;15.98;80.82
71948;BME280;63257;55.082;38.772;2023-08-21T06:30:57;99911.88;;;15.99;81.32
71948;BME280;63257;55.082;38.772;2023-08-21T06:33:23;99895.28;;;15.96;80.86
71948;BME280;63257;55.082;38.772;2023-08-21T06:35:50;99903.16;;;15.73;81.76
71948;BME280;63257;55.082;38.772;2023-08-21T06:38:16;99892.38;;;15.63;83.07
71948;BME280;63257;55.082;38.772;2023-08-21T06:40:45;99896.88;;;15.74;82.03
71948;BME280;63257;55.082;38.772;2023-08-21T06:43:11;99894.19;;;15.63;82.28
71948;BME280;63257;55.082;38.772;2023-08-21T06:45:42;99887.97;;;15.51;81.69
71948;BME280;63257;55.082;38.772;2023-08-21T06:48:08;99889.97;;;15.36;82.16
71948;BME280;63257;55.082;38.772;2023-08-21T06:50:34;99894.97;;;15.40;83.01
71948;BME280;63257;55.082;38.772;2023-08-21T06:53:02;99907.09;;;15.56;83.36
71948;BME280;63257;55.082;38.772;2023-08-21T06:55:28;99905.19;;;15.58;82.91
71948;BME280;63257;55.082;38.772;2023-08-21T06:57:54;99906.75;;;15.60;82.27
71948;BME280;63257;55.082;38.772;2023-08-21T07:00:19;99891.66;;;15.61;81.67
71948;BME280;63257;55.082;38.772;2023-08-21T07:02:45;99900.09;;;15.90;78.65
71948;BME280;63257;55.082;38.772;2023-08-21T07:05:11;99901.84;;;16.14;77.61
71948;BME280;63257;55.082;38.772;2023-08-21T07:07:37;99899.44;;;16.22;76.04
71948;BME280;63257;55.082;38.772;2023-08-21T07:10:03;99893.53;;;16.19;75.00
71948;BME280;63257;55.082;38.772;2023-08-21T07:12:29;99889.28;;;16.39;75.68
71948;BME280;63257;55.082;38.772;2023-08-21T07:14:55;99893.41;;;16.66;74.86
71948;BME280;63257;55.082;38.772;2023-08-21T07:17:21;99894.34;;;16.87;74.47
71948;BME280;63257;55.082;38.772;2023-08-21T07:19:47;99883.34;;;16.92;71.91
71948;BME280;63257;55.082;38.772;2023-08-21T07:22:14;99895.81;;;17.03;71.03
71948;BME280;63257;55.082;38.772;2023-08-21T07:24:40;99895.59;;;16.94;72.05
71948;BME280;63257;55.082;38.772;2023-08-21T07:27:06;99886.25;;;17.00;72.24
71948;BME280;63257;55.082;38.772;2023-08-21T07:29:31;99892.63;;;17.09;72.84
71948;BME280;63257;55.082;38.772;2023-08-21T07:31:57;99878.75;;;16.94;72.57
71948;BME280;63257;55.082;38.772;2023-08-21T07:34:23;99894.84;;;17.04;72.27
71948;BME280;63257;55.082;38.772;2023-08-21T07:36:49;99885.25;;;16.78;72.40
71948;BME280;63257;55.082;38.772;2023-08-21T07:39:15;99897.16;;;16.86;72.14
71948;BME280;63257;55.082;38.772;2023-08-21T07:41:41;99896.63;;;17.03;72.98
71948;BME280;63257;55.082;38.772;2023-08-21T07:44:06;99899.53;;;17.23;72.22
71948;BME280;63257;55.082;38.772;2023-08-21T07:46:32;99897.19;;;17.29;70.30
71948;BME280;63257;55.082;38.772;2023-08-21T07:48:58;99898.03;;;17.30;70.20
71948;BME280;63257;55.082;38.772;2023-08-21T07:51:24;99891.47;;;17.34;70.24
71948;BME280;63257;55.082;38.772;2023-08-21T07:53:49;99892.09;;;17.26;69.41
71948;BME280;63257;55.082;38.772;2023-08-21T07:56:15;99886.16;;;17.34;69.50
71948;BME280;63257;55.082;38.772;2023-08-21T07:58:41;99901.59;;;17.52;68.60
71948;BME280;63257;55.082;38.772;2023-08-21T08:01:06;99876.38;;;17.44;67.63
71948;BME280;63257;55.082;38.772;2023-08-21T08:03:32;99882.31;;;17.80;65.95
71948;BME280;63257;55.082;38.772;2023-08-21T08:05:58;99882.41;;;18.21;66.30
71948;BME280;63257;55.082;38.772;2023-08-21T08:08:24;99877.78;;;18.54;64.29
71948;BME280;63257;55.082;38.772;2023-08-21T08:10:50;99877.63;;;18.87;62.45
71948;BME280;63257;55.082;38.772;2023-08-21T08:13:16;99865.63;;;18.71;61.95
71948;BME280;63257;55.082;38.772;2023-08-21T08:15:42;99882.44;;;18.52;63.84
71948;BME280;63257;55.082;38.772;2023-08-21T08:18:12;99883.69;;;18.48;64.49
71948;BME280;63257;55.082;38.772;2023-08-21T08:20:38;99885.59;;;18.67;63.70
71948;BME280;63257;55.082;38.772;2023-08-21T08:23:04;99872.00;;;18.49;62.80
71948;BME280;63257;55.082;38.772;2023-08-21T08:25:30;99874.91;;;18.67;61.07
71948;BME280;63257;55.082;38.772;2023-08-21T08:27:55;99878.72;;;18.74;60.31
71948;BME280;63257;55.082;38.772;2023-08-21T08:30:21;99876.06;;;18.84;59.81
71948;BME280;63257;55.082;38.772;2023-08-21T08:32:48;99873.91;;;18.78;59.80
71948;BME280;63257;55.082;38.772;2023-08-21T08:35:14;99875.75;;;19.28;59.11
71948;BME280;63257;55.082;38.772;2023-08-21T08:37:42;99867.41;;;19.50;59.58
71948;BME280;63257;55.082;38.772;2023-08-21T08:40:11;99869.81;;;19.44;58.85
71948;BME280;63257;55.082;38.772;2023-08-21T08:42:38;99866.31;;;19.24;59.19
71948;BME280;63257;55.082;38.772;2023-08-21T08:45:06;99859.00;;;19.45;59.67
71948;BME280;63257;55.082;38.772;2023-08-21T08:47:35;99867.97;;;19.83;58.38
71948;BME280;63257;55.082;38.772;2023-08-21T08:50:03;99872.47;;;19.93;56.98
71948;BME280;63257;55.082;38.772;2023-08-21T08:52:34;99864.13;;;20.06;57.00
71948;BME280;63257;55.082;38.772;2023-08-21T08:55:01;99859.91;;;20.13;56.75
71948;BME280;63257;55.082;38.772;2023-08-21T08:57:31;99851.19;;;20.39;56.86
71948;BME280;63257;55.082;38.772;2023-08-21T08:59:57;99849.56;;;20.18;54.34
71948;BME280;63257;55.082;38.772;2023-08-21T09:02:24;99865.75;;;20.36;54.24
71948;BME280;63257;55.082;38.772;2023-08-21T09:04:51;99856.16;;;20.61;53.19
71948;BME280;63257;55.082;38.772;2023-08-21T09:07:17;99863.88;;;20.74;52.36
71948;BME280;63257;55.082;38.772;2023-08-21T09:09:46;99869.00;;;20.95;51.71
71948;BME280;63257;55.082;38.772;2023-08-21T09:12:13;99848.69;;;20.93;52.83
71948;BME280;63257;55.082;38.772;2023-08-21T09:14:40;99865.97;;;20.80;52.53
71948;BME280;63257;55.082;38.772;2023-08-21T09:17:07;99873.25;;;20.23;52.18
71948;BME280;63257;55.082;38.772;2023-08-21T09:19:33;99861.31;;;19.97;53.44
71948;BME280;63257;55.082;38.772;2023-08-21T09:22:03;99858.38;;;20.00;53.45
71948;BME280;63257;55.082;38.772;2023-08-21T09:24:33;99859.53;;;19.88;54.08
71948;BME280;63257;55.082;38.772;2023-08-21T09:26:59;99851.94;;;19.64;52.97
71948;BME280;63257;55.082;38.772;2023-08-21T09:29:27;99865.72;;;19.89;53.61
71948;BME280;63257;55.082;38.772;2023-08-21T09:32:03;99866.69;;;19.97;53.26
71948;BME280;63257;55.082;38.772;2023-08-21T09:34:37;99865.19;;;20.32;51.92
71948;BME280;63257;55.082;38.772;2023-08-21T09:37:07;99861.19;;;20.09;51.72
71948;BME280;63257;55.082;38.772;2023-08-21T09:39:37;99866.09;;;20.13;52.22
71948;BME280;63257;55.082;38.772;2023-08-21T09:42:06;99865.53;;;20.20;52.09
71948;BME280;63257;55.082;38.772;2023-08-21T09:44:40;99861.25;;;20.27;52.16
71948;BME280;63257;55.082;38.772;2023-08-21T09:47:10;99845.91;;;20.84;51.95
71948;BME280;63257;55.082;38.772;2023-08-21T09:49:38;99857.75;;;21.28;49.42
71948;BME280;63257;55.082;38.772;2023-08-21T09:52:06;99848.53;;;21.48;48.25
71948;BME280;63257;55.082;38.772;2023-08-21T09:54:53;99838.28;;;21.62;48.38
71948;BME280;63257;55.082;38.772;2023-08-21T09:57:22;99837.56;;;22.04;48.98
71948;BME280;63257;55.082;38.772;2023-08-21T09:59:52;99846.00;;;22.35;47.61
71948;BME280;63257;55.082;38.772;2023-08-21T10:02:18;99852.63;;;22.23;47.81
71948;BME280;63257;55.082;38.772;2023-08-21T10:04:45;99838.06;;;21.81;49.00
71948;BME280;63257;55.082;38.772;2023-08-21T10:07:12;99841.78;;;21.80;50.27
71948;BME280;63257;55.082;38.772;2023-08-21T10:09:40;99845.91;;;21.75;49.27
71948;BME280;63257;55.082;38.772;2023-08-21T10:12:12;99845.25;;;21.37;47.79
71948;BME280;63257;55.082;38.772;2023-08-21T10:14:41;99848.31;;;21.42;47.82
71948;BME280;63257;55.082;38.772;2023-08-21T10:17:07;99842.94;;;21.42;47.79
71948;BME280;63257;55.082;38.772;2023-08-21T10:19:37;99847.31;;;21.25;46.76
71948;BME280;63257;55.082;38.772;2023-08-21T10:22:02;99841.94;;;21.25;47.31
71948;BME280;63257;55.082;38.772;2023-08-21T10:24:36;99843.16;;;21.66;46.50
71948;BME280;63257;55.082;38.772;2023-08-21T10:27:03;99825.50;;;21.82;47.33
71948;BME280;63257;55.082;38.772;2023-08-21T10:29:29;99837.63;;;22.47;46.72
71948;BME280;63257;55.082;38.772;2023-08-21T10:32:03;99823.53;;;21.92;46.26
71948;BME280;63257;55.082;38.772;2023-08-21T10:34:36;99849.84;;;21.62;46.89
71948;BME280;63257;55.082;38.772;2023-08-21T10:37:09;99838.94;;;20.92;48.38
71948;BME280;63257;55.082;38.772;2023-08-21T10:39:38;99849.19;;;20.78;48.52
71948;BME280;63257;55.082;38.772;2023-08-21T10:47:26;99830.34;;;20.88;47.90
71948;BME280;63257;55.082;38.772;2023-08-21T10:49:58;99832.81;;;21.35;47.15
71948;BME280;63257;55.082;38.772;2023-08-21T10:52:26;99833.34;;;21.21;48.00
71948;BME280;63257;55.082;38.772;2023-08-21T10:55:11;99840.09;;;21.07;47.12
71948;BME280;63257;55.082;38.772;2023-08-21T10:57:37;99814.13;;;20.90;46.68
71948;BME280;63257;55.082;38.772;2023-08-21T11:00:05;99820.53;;;20.79;47.45
71948;BME280;63257;55.082;38.772;2023-08-21T11:02:35;99833.59;;;20.64;47.84
71948;BME280;63257;55.082;38.772;2023-08-21T11:05:01;99825.66;;;20.44;48.34
71948;BME280;63257;55.082;38.772;2023-08-21T11:07:43;99828.28;;;20.54;50.22
71948;BME280;63257;55.082;38.772;2023-08-21T11:10:16;99834.72;;;20.61;48.64
71948;BME280;63257;55.082;38.772;2023-08-21T11:12:55;99826.00;;;21.05;49.03
71948;BME280;63257;55.082;38.772;2023-08-21T11:15:21;99815.19;;;21.33;46.92
71948;BME280;63257;55.082;38.772;2023-08-21T11:18:05;99817.72;;;21.34;46.33
71948;BME280;63257;55.082;38.772;2023-08-21T11:20:33;99812.13;;;21.90;45.86
71948;BME280;63257;55.082;38.772;2023-08-21T11:23:01;99808.41;;;22.52;44.51
71948;BME280;63257;55.082;38.772;2023-08-21T11:25:34;99804.28;;;22.82;43.49
71948;BME280;63257;55.082;38.772;2023-08-21T11:28:00;99813.25;;;22.48;43.43
71948;BME280;63257;55.082;38.772;2023-08-21T11:30:32;99820.34;;;21.89;43.97
71948;BME280;63257;55.082;38.772;2023-08-21T11:33:09;99806.81;;;21.54;45.00
71948;BME280;63257;55.082;38.772;2023-08-21T11:35:36;99808.72;;;22.14;44.13
71948;BME280;63257;55.082;38.772;2023-08-21T11:38:03;99809.19;;;22.36;42.42
71948;BME280;63257;55.082;38.772;2023-08-21T11:40:29;99816.53;;;22.68;42.11
71948;BME280;63257;55.082;38.772;2023-08-21T11:43:00;99799.72;;;22.75;41.62
71948;BME280;63257;55.082;38.772;2023-08-21T11:45:26;99807.34;;;22.96;41.41
71948;BME280;63257;55.082;38.772;2023-08-21T11:47:55;99802.16;;;23.52;40.56
71948;BME280;63257;55.082;38.772;2023-08-21T11:50:21;99806.72;;;23.60;40.10
71948;BME280;63257;55.082;38.772;2023-08-21T11:52:51;99808.06;;;23.72;40.16
71948;BME280;63257;55.082;38.772;2023-08-21T11:55:17;99791.88;;;23.88;39.52
71948;BME280;63257;55.082;38.772;2023-08-21T11:57:50;99786.66;;;24.43;39.27
71948;BME280;63257;55.082;38.772;2023-08-21T12:00:18;99798.41;;;24.50;38.26
71948;BME280;63257;55.082;38.772;2023-08-21T12:02:55;99796.50;;;24.28;38.87
71948;BME280;63257;55.082;38.772;2023-08-21T12:05:22;99803.78;;;24.90;39.09
71948;BME280;63257;55.082;38.772;2023-08-21T12:07:48;99801.16;;;24.42;40.68
71948;BME280;63257;55.082;38.772;2023-08-21T12:10:14;99800.47;;;23.92;41.83
71948;BME280;63257;55.082;38.772;2023-08-21T12:12:40;99797.47;;;23.29;42.51
71948;BME280;63257;55.082;38.772;2023-08-21T12:15:06;99795.06;;;22.93;44.02
71948;BME280;63257;55.082;38.772;2023-08-21T12:17:32;99801.53;;;22.58;44.21
71948;BME280;63257;55.082;38.772;2023-08-21T12:19:57;99778.75;;;22.95;43.91
71948;BME280;63257;55.082;38.772;2023-08-21T12:22:23;99772.06;;;24.29;41.57
71948;BME280;63257;55.082;38.772;2023-08-21T12:24:49;99777.81;;;25.12;38.46
71948;BME280;63257;55.082;38.772;2023-08-21T12:27:14;99784.13;;;25.66;37.92
71948;BME280;63257;55.082;38.772;2023-08-21T12:29:41;99779.03;;;26.01;36.20
71948;BME280;63257;55.082;38.772;2023-08-21T12:32:07;99765.09;;;26.49;35.20
71948;BME280;63257;55.082;38.772;2023-08-21T12:34:33;99771.09;;;27.02;36.20
71948;BME280;63257;55.082;38.772;2023-08-21T12:36:59;99765.38;;;27.12;34.72
71948;BME280;63257;55.082;38.772;2023-08-21T12:39:25;99771.34;;;26.49;35.06
71948;BME280;63257;55.082;38.772;2023-08-21T12:41:51;99767.28;;;25.64;35.95
71948;BME280;63257;55.082;38.772;2023-08-21T12:44:17;99769.47;;;24.99;36.96
71948;BME280;63257;55.082;38.772;2023-08-21T12:46:43;99764.09;;;24.67;39.72
71948;BME280;63257;55.082;38.772;2023-08-21T12:49:10;99766.25;;;25.95;37.12
71948;BME280;63257;55.082;38.772;2023-08-21T12:51:36;99745.97;;;26.87;35.26
71948;BME280;63257;55.082;38.772;2023-08-21T12:54:02;99763.97;;;27.66;33.46
71948;BME280;63257;55.082;38.772;2023-08-21T12:56:28;99768.91;;;28.19;32.34